createdAt,value
2023-01-05T00:01:10.480Z,2.92
2023-01-05T00:03:37.839Z,2.53
2023-01-05T00:06:07.373Z,1.52
2023-01-05T00:08:37.494Z,2.40
2023-01-05T00:11:24.735Z,1.83
2023-01-05T00:14:10.092Z,1.92
2023-01-05T00:16:54.775Z,3.20
2023-01-05T00:19:39.628Z,2.75
2023-01-05T00:22:32.455Z,2.75
2023-01-05T00:25:11.196Z,2.05
2023-01-05T00:27:39.850Z,2.53
2023-01-05T00:30:07.352Z,1.58
2023-01-05T00:32:33.796Z,1.90
2023-01-05T00:35:01.354Z,2.35
2023-01-05T00:37:31.484Z,2.58
2023-01-05T00:39:58.890Z,3.22
2023-01-05T00:42:25.974Z,2.25
2023-01-05T00:44:52.363Z,2.30
2023-01-05T00:47:18.790Z,3.80
2023-01-05T00:49:45.136Z,2.90
2023-01-05T00:52:11.580Z,1.48
2023-01-05T00:54:37.902Z,3.08
2023-01-05T00:57:05.957Z,1.58
2023-01-05T00:59:32.292Z,2.30
2023-01-05T01:01:58.940Z,2.90
2023-01-05T01:04:25.446Z,2.58
2023-01-05T01:06:51.750Z,1.50
2023-01-05T01:09:18.046Z,3.42
2023-01-05T01:11:45.359Z,2.45
2023-01-05T01:14:13.302Z,1.95
2023-01-05T01:16:43.107Z,2.63
2023-01-05T01:19:14.709Z,2.55
2023-01-05T01:21:41.194Z,4.03
2023-01-05T01:24:07.829Z,3.40
2023-01-05T01:26:34.228Z,2.33
2023-01-05T01:29:00.531Z,2.78
2023-01-05T01:31:26.923Z,2.17
2023-01-05T01:33:53.220Z,1.25
2023-01-05T01:36:20.441Z,2.72
2023-01-05T01:38:46.732Z,1.50
2023-01-05T01:41:13.870Z,1.80
2023-01-05T01:43:49.284Z,2.00
2023-01-05T01:46:17.492Z,2.28
2023-01-05T01:48:49.556Z,2.70
2023-01-05T01:51:31.669Z,1.35
2023-01-05T01:54:00.869Z,2.33
2023-01-05T01:56:32.605Z,2.47
2023-01-05T01:58:58.994Z,2.05
2023-01-05T02:01:25.499Z,1.83
2023-01-05T02:03:51.930Z,2.15
2023-01-05T02:06:18.234Z,2.70
2023-01-05T02:08:45.065Z,2.80
2023-01-05T02:11:38.912Z,4.00
2023-01-05T02:14:26.989Z,2.55
2023-01-05T02:17:17.322Z,2.85
2023-01-05T02:20:02.427Z,1.80
2023-01-05T02:22:57.494Z,1.70
2023-01-05T02:25:45.636Z,2.47
2023-01-05T02:28:30.703Z,1.88
2023-01-05T02:31:22.197Z,1.85
2023-01-05T02:33:57.530Z,2.60
2023-01-05T02:36:56.191Z,2.80
2023-01-05T02:39:41.386Z,2.38
2023-01-05T02:42:13.495Z,2.13
2023-01-05T02:44:56.243Z,1.65
2023-01-05T02:47:25.565Z,2.60
2023-01-05T02:50:00.376Z,2.88
2023-01-05T02:52:27.651Z,2.35
2023-01-05T02:54:59.234Z,1.17
2023-01-05T02:57:51.026Z,4.28
2023-01-05T03:00:26.477Z,2.03
2023-01-05T03:03:05.737Z,3.42
2023-01-05T03:05:49.010Z,2.90
2023-01-05T03:08:29.065Z,1.52
2023-01-05T03:11:32.328Z,3.20
2023-01-05T03:14:12.600Z,2.65
2023-01-05T03:16:39.755Z,1.23
2023-01-05T03:19:33.666Z,3.42
2023-01-05T03:22:22.541Z,2.47
2023-01-05T03:25:08.764Z,3.00
2023-01-05T03:27:55.090Z,1.55
2023-01-05T03:30:49.068Z,3.20
2023-01-05T03:33:44.004Z,1.70
2023-01-05T03:36:13.377Z,2.83
2023-01-05T03:38:45.548Z,3.22
2023-01-05T03:41:15.431Z,2.28
2023-01-05T03:43:43.339Z,3.03
2023-01-05T03:46:21.477Z,2.50
2023-01-05T03:48:48.293Z,3.45
2023-01-05T03:51:16.320Z,2.63
2023-01-05T03:53:43.087Z,2.85
2023-01-05T03:56:09.417Z,2.45
2023-01-05T03:58:35.807Z,2.90
2023-01-05T04:01:02.909Z,2.30
2023-01-05T04:03:32.009Z,2.42
2023-01-05T04:05:58.823Z,2.35
2023-01-05T04:08:25.203Z,2.33
2023-01-05T04:10:53.305Z,2.67
2023-01-05T04:13:20.109Z,2.60
2023-01-05T04:15:46.517Z,2.17
2023-01-05T04:18:12.849Z,2.67
2023-01-05T04:20:39.245Z,1.60
2023-01-05T04:23:05.564Z,2.85
2023-01-05T04:25:31.869Z,1.60
2023-01-05T04:27:58.898Z,3.65
2023-01-05T04:30:25.219Z,2.33
2023-01-05T04:32:51.574Z,2.30
2023-01-05T04:35:17.903Z,1.90
2023-01-05T04:37:44.200Z,1.60
2023-01-05T04:40:11.024Z,2.63
2023-01-05T04:42:37.377Z,2.38
2023-01-05T04:45:04.099Z,1.77
2023-01-05T04:47:30.414Z,3.08
2023-01-05T04:49:56.689Z,2.67
2023-01-05T04:52:22.999Z,2.38
2023-01-05T04:54:49.348Z,1.80
2023-01-05T04:57:15.645Z,2.70
2023-01-05T04:59:41.947Z,2.22
2023-01-05T05:02:09.195Z,2.53
2023-01-05T05:04:35.566Z,1.80
2023-01-05T05:07:01.884Z,3.13
2023-01-05T05:09:28.227Z,2.42
2023-01-05T05:11:54.522Z,2.90
2023-01-05T05:14:20.851Z,2.35
2023-01-05T05:16:47.147Z,1.98
2023-01-05T05:19:13.640Z,1.85
2023-01-05T05:21:39.947Z,1.40
2023-01-05T05:24:06.644Z,2.20
2023-01-05T05:26:32.997Z,1.55
2023-01-05T05:28:59.618Z,1.70
2023-01-05T05:31:26.201Z,2.10
2023-01-05T05:33:52.526Z,2.42
2023-01-05T05:36:18.859Z,2.35
2023-01-05T05:38:45.215Z,2.78
2023-01-05T05:41:11.578Z,2.42
2023-01-05T05:43:38.031Z,0.93
2023-01-05T05:46:04.477Z,2.47
2023-01-05T05:48:30.808Z,2.03
2023-01-05T05:50:57.175Z,1.58
2023-01-05T05:53:23.536Z,1.70
2023-01-05T05:55:51.005Z,2.20
2023-01-05T05:58:18.795Z,2.08
2023-01-05T06:00:46.013Z,1.42
2023-01-05T06:03:12.573Z,1.88
2023-01-05T06:05:38.940Z,2.08
2023-01-05T06:08:05.298Z,3.15
2023-01-05T06:10:31.645Z,3.13
2023-01-05T06:12:57.977Z,1.30
2023-01-05T06:15:24.334Z,2.92
2023-01-05T06:17:51.423Z,3.08
2023-01-05T06:20:17.980Z,1.60
2023-01-05T06:22:44.366Z,1.75
2023-01-05T06:25:10.952Z,3.17
2023-01-05T06:27:37.521Z,2.38
2023-01-05T06:30:04.661Z,1.95
2023-01-05T06:32:31.133Z,2.75
2023-01-05T06:34:57.450Z,1.92
2023-01-05T06:37:23.753Z,2.20
2023-01-05T06:39:50.118Z,2.05
2023-01-05T06:42:21.663Z,3.88
2023-01-05T06:44:49.649Z,1.77
2023-01-05T06:47:15.964Z,1.90
2023-01-05T06:49:42.251Z,1.55
2023-01-05T06:52:14.153Z,2.28
2023-01-05T06:54:42.471Z,4.05
2023-01-05T06:57:08.761Z,1.73
2023-01-05T06:59:35.133Z,2.83
2023-01-05T07:02:01.526Z,3.13
2023-01-05T07:04:27.974Z,1.70
2023-01-05T07:06:54.309Z,1.73
2023-01-05T07:09:20.642Z,2.60
2023-01-05T07:11:46.945Z,2.97
2023-01-05T07:14:13.254Z,4.53
2023-01-05T07:16:39.607Z,2.03
2023-01-05T07:19:05.944Z,1.75
2023-01-05T07:21:32.244Z,1.73
2023-01-05T07:23:58.559Z,3.00
2023-01-05T07:26:24.857Z,2.78
2023-01-05T07:28:51.179Z,2.58
2023-01-05T07:31:17.520Z,2.15
2023-01-05T07:33:43.867Z,2.60
2023-01-05T07:36:10.267Z,3.03
2023-01-05T07:38:36.580Z,2.60
2023-01-05T07:41:03.331Z,2.38
2023-01-05T07:43:29.746Z,1.73
2023-01-05T07:46:04.072Z,2.33
2023-01-05T07:48:30.680Z,1.92
2023-01-05T07:51:04.251Z,2.28
2023-01-05T07:53:36.782Z,1.48
2023-01-05T07:56:10.233Z,2.03
2023-01-05T07:58:36.537Z,2.70
2023-01-05T08:01:04.910Z,1.98
2023-01-05T08:03:32.005Z,4.05
2023-01-05T08:05:58.406Z,4.03
2023-01-05T08:08:25.024Z,1.60
2023-01-05T08:10:51.370Z,1.60
2023-01-05T08:13:36.556Z,2.83
2023-01-05T08:16:03.012Z,3.20
2023-01-05T08:18:29.437Z,2.42
2023-01-05T08:20:58.493Z,2.15
2023-01-05T08:23:26.966Z,2.25
2023-01-05T08:25:55.106Z,4.07
2023-01-05T08:28:22.147Z,2.72
2023-01-05T08:30:48.474Z,2.55
2023-01-05T08:33:14.790Z,3.03
2023-01-05T08:35:42.251Z,2.50
2023-01-05T08:38:09.051Z,4.07
2023-01-05T08:40:37.126Z,2.60
2023-01-05T08:43:04.709Z,3.03
2023-01-05T08:45:32.300Z,2.53
2023-01-05T08:47:58.680Z,2.20
2023-01-05T08:50:25.141Z,2.03
2023-01-05T08:52:51.450Z,1.83
2023-01-05T08:55:18.061Z,2.15
2023-01-05T08:57:44.357Z,1.40
2023-01-05T09:00:11.320Z,1.98
2023-01-05T09:02:37.767Z,2.90
2023-01-05T09:05:04.434Z,1.48
2023-01-05T09:07:30.751Z,2.03
2023-01-05T09:09:57.046Z,2.78
2023-01-05T09:12:26.723Z,2.42
2023-01-05T09:14:55.555Z,2.85
2023-01-05T09:17:24.335Z,1.63
2023-01-05T09:19:50.706Z,2.42
2023-01-05T09:22:17.116Z,1.83
2023-01-05T09:24:43.433Z,2.65
2023-01-05T09:27:12.318Z,2.00
2023-01-05T09:29:38.681Z,1.80
2023-01-05T09:32:05.991Z,3.05
2023-01-05T09:34:32.604Z,2.17
2023-01-05T09:36:59.102Z,3.25
2023-01-05T09:39:25.502Z,1.98
2023-01-05T09:41:56.103Z,2.30
2023-01-05T09:44:30.628Z,3.72
2023-01-05T09:47:19.122Z,3.30
2023-01-05T09:49:48.950Z,2.30
2023-01-05T09:52:16.172Z,2.22
2023-01-05T09:54:42.480Z,3.15
2023-01-05T09:57:19.077Z,1.83
2023-01-05T09:59:58.818Z,1.38
2023-01-05T10:02:33.885Z,2.72
2023-01-05T10:05:02.425Z,2.03
2023-01-05T10:07:36.226Z,2.78
2023-01-05T10:10:11.879Z,2.22
2023-01-05T10:13:13.060Z,2.92
2023-01-05T10:18:18.999Z,4.47
2023-01-05T10:21:11.001Z,2.50
2023-01-05T10:23:58.715Z,3.17
2023-01-05T10:27:23.560Z,3.00
2023-01-05T10:29:47.651Z,2.00
2023-01-05T10:32:20.658Z,2.45
2023-01-05T10:35:41.823Z,2.08
2023-01-05T10:38:31.104Z,2.10
2023-01-05T10:41:22.364Z,2.40
2023-01-05T10:46:41.633Z,1.98
2023-01-05T10:49:06.948Z,1.98
2023-01-05T10:51:33.760Z,2.72
2023-01-05T10:54:02.947Z,1.65
2023-01-05T10:56:30.631Z,2.20
2023-01-05T10:59:17.423Z,1.50
2023-01-05T11:01:49.182Z,2.42
2023-01-05T11:04:35.974Z,3.15
2023-01-05T11:07:06.992Z,1.70
2023-01-05T11:09:40.098Z,2.35
2023-01-05T11:12:15.848Z,2.95
2023-01-05T11:14:44.226Z,2.25
2023-01-05T11:17:19.468Z,3.15
2023-01-05T11:19:49.359Z,3.33
2023-01-05T11:22:27.662Z,2.17
2023-01-05T11:24:54.112Z,1.92
2023-01-05T11:27:20.386Z,2.42
2023-01-05T11:30:15.611Z,1.17
2023-01-05T11:32:43.464Z,2.38
2023-01-05T11:35:31.281Z,3.83
2023-01-05T11:37:57.981Z,2.13
2023-01-05T11:40:29.236Z,3.08
2023-01-05T11:45:25.002Z,2.60
2023-01-05T11:47:57.005Z,1.92
2023-01-05T11:50:25.384Z,2.78
2023-01-05T11:52:57.381Z,1.98
2023-01-05T11:55:40.322Z,2.72
2023-01-05T11:58:09.584Z,1.75
2023-01-05T12:01:11.281Z,2.83
2023-01-05T12:04:03.965Z,4.35
2023-01-05T12:06:49.050Z,1.50
2023-01-05T12:09:23.318Z,2.40
2023-01-05T12:12:05.468Z,2.95
2023-01-05T12:14:54.782Z,2.47
2023-01-05T12:17:33.594Z,2.80
2023-01-05T12:20:12.115Z,3.20
2023-01-05T12:23:06.119Z,0.88
2023-01-05T12:25:45.427Z,2.15
2023-01-05T12:28:40.411Z,3.50
2023-01-05T12:34:21.774Z,2.45
2023-01-05T12:36:59.945Z,3.75
2023-01-05T12:39:51.939Z,2.72
2023-01-05T12:42:48.334Z,1.83
2023-01-05T12:45:42.201Z,2.40
2023-01-05T12:48:17.452Z,1.58
2023-01-05T12:51:12.333Z,3.53
2023-01-05T12:53:50.064Z,2.17
2023-01-05T12:56:23.082Z,2.33
2023-01-05T12:58:59.866Z,2.42
2023-01-05T13:01:31.042Z,3.00
2023-01-05T13:04:10.790Z,2.10
2023-01-05T13:06:42.023Z,2.38
2023-01-05T13:09:19.342Z,2.83
2023-01-05T13:12:04.490Z,2.33
2023-01-05T13:14:36.696Z,2.08
2023-01-05T13:17:37.210Z,3.33
2023-01-05T13:20:18.520Z,3.43
2023-01-05T13:22:49.187Z,2.45
2023-01-05T13:25:22.220Z,1.90
2023-01-05T13:27:48.931Z,1.80
2023-01-05T13:30:43.082Z,1.30
2023-01-05T13:33:30.816Z,2.85
2023-01-05T13:36:19.384Z,2.80
2023-01-05T13:39:12.387Z,2.67
2023-01-05T13:41:57.865Z,2.47
2023-01-05T13:45:09.536Z,3.15
2023-01-05T13:47:57.245Z,2.75
2023-01-05T13:50:58.001Z,3.80
2023-01-05T13:53:27.355Z,3.57
2023-01-05T13:56:04.731Z,3.00
2023-01-05T13:58:44.477Z,3.60
2023-01-05T14:01:16.510Z,2.38
2023-01-05T14:03:52.472Z,2.30
2023-01-05T14:06:23.948Z,3.35
2023-01-05T14:09:01.651Z,3.45
2023-01-05T14:11:28.903Z,3.70
2023-01-05T14:14:04.747Z,4.15
2023-01-05T14:16:37.669Z,3.50
2023-01-05T14:19:13.853Z,3.55
2023-01-05T14:21:49.871Z,3.47
2023-01-05T14:27:11.478Z,4.28
2023-01-05T14:29:46.900Z,4.35
2023-01-05T14:32:25.751Z,3.58
2023-01-05T14:37:36.172Z,3.42
2023-01-05T14:40:16.039Z,4.25
2023-01-05T14:42:47.692Z,2.88
2023-01-05T14:45:36.808Z,3.92
2023-01-05T14:48:08.692Z,3.67
2023-01-05T14:50:42.446Z,3.03
2023-01-05T14:53:13.573Z,2.53
2023-01-05T14:58:15.407Z,2.80
2023-01-05T15:01:01.289Z,3.13
2023-01-05T15:03:41.530Z,2.90
2023-01-05T15:06:19.552Z,3.80
2023-01-05T15:09:21.887Z,3.63
2023-01-05T15:12:03.104Z,3.88
2023-01-05T15:17:33.427Z,3.33
2023-01-05T15:20:27.627Z,3.28
2023-01-05T15:23:30.138Z,3.47
2023-01-05T15:26:27.044Z,3.28
2023-01-05T15:29:20.158Z,2.65
2023-01-05T15:32:27.148Z,3.53
2023-01-05T15:35:16.067Z,3.28
2023-01-05T15:37:43.732Z,2.72
2023-01-05T15:40:15.789Z,4.00
2023-01-05T15:42:44.781Z,3.63
2023-01-05T15:45:22.174Z,3.92
2023-01-05T15:47:49.664Z,3.17
2023-01-05T15:50:20.006Z,3.75
2023-01-05T15:53:33.151Z,3.20
2023-01-05T15:56:00.559Z,3.22
2023-01-05T15:58:29.379Z,4.68
2023-01-05T16:01:06.556Z,3.70
2023-01-05T16:03:35.771Z,3.35
2023-01-05T16:06:08.252Z,4.13
2023-01-05T16:08:40.898Z,3.53
2023-01-05T16:11:10.204Z,5.28
2023-01-05T16:13:49.336Z,3.80
2023-01-05T16:16:50.482Z,5.18
2023-01-05T16:19:28.766Z,3.92
2023-01-05T16:22:24.689Z,5.65
2023-01-05T16:25:00.863Z,3.63
2023-01-05T16:27:28.660Z,4.80
2023-01-05T16:29:55.135Z,5.07
2023-01-05T16:32:37.080Z,4.35
2023-01-05T16:35:40.986Z,5.65
2023-01-05T16:38:10.372Z,6.30
2023-01-05T16:40:45.887Z,6.50
2023-01-05T16:43:27.476Z,6.05
2023-01-05T16:45:58.105Z,6.90
2023-01-05T16:48:38.651Z,6.50
2023-01-05T16:51:10.475Z,7.43
2023-01-05T16:53:42.809Z,8.32
2023-01-05T16:56:42.351Z,6.40
2023-01-05T16:59:49.896Z,6.70
2023-01-05T17:02:36.475Z,6.60
2023-01-05T17:05:02.890Z,7.18
2023-01-05T17:07:29.248Z,7.25
2023-01-05T17:09:55.644Z,7.78
2023-01-05T17:12:22.111Z,6.70
2023-01-05T17:14:48.453Z,6.43
2023-01-05T17:17:15.031Z,7.28
2023-01-05T17:19:41.489Z,6.90
2023-01-05T17:22:11.752Z,6.05
2023-01-05T17:24:39.746Z,6.50
2023-01-05T17:27:06.595Z,4.38
2023-01-05T17:29:33.092Z,5.18
2023-01-05T17:31:59.393Z,4.65
2023-01-05T17:34:25.943Z,4.78
2023-01-05T17:36:56.029Z,5.95
2023-01-05T17:39:22.680Z,6.10
2023-01-05T17:41:49.119Z,6.18
2023-01-05T17:44:15.820Z,6.30
2023-01-05T17:46:44.375Z,4.90
2023-01-05T17:49:19.913Z,5.25
2023-01-05T17:51:47.010Z,5.80
2023-01-05T17:54:13.469Z,4.43
2023-01-05T17:56:39.855Z,6.32
2023-01-05T17:59:06.737Z,5.20
2023-01-05T18:01:36.283Z,5.18
2023-01-05T18:04:02.910Z,5.10
2023-01-05T18:06:29.280Z,5.47
2023-01-05T18:08:55.606Z,4.85
2023-01-05T18:11:21.961Z,4.55
2023-01-05T18:13:48.311Z,4.95
2023-01-05T18:16:14.982Z,5.20
2023-01-05T18:18:41.597Z,6.10
2023-01-05T18:21:07.970Z,4.55
2023-01-05T18:23:34.636Z,5.47
2023-01-05T18:26:06.139Z,5.30
2023-01-05T18:28:32.631Z,5.22
2023-01-05T18:31:00.727Z,5.70
2023-01-05T18:33:27.640Z,5.65
2023-01-05T18:38:21.706Z,5.55
2023-01-05T18:40:49.724Z,5.57
2023-01-05T18:43:17.014Z,5.68
2023-01-05T18:45:43.437Z,6.75
2023-01-05T18:48:09.844Z,6.80
2023-01-05T18:50:40.106Z,6.03
2023-01-05T18:53:06.428Z,5.97
2023-01-05T18:55:32.718Z,5.43
2023-01-05T18:57:59.016Z,6.03
2023-01-05T19:00:25.346Z,6.25
2023-01-05T19:02:51.659Z,5.68
2023-01-05T19:05:18.033Z,5.60
2023-01-05T19:07:44.422Z,5.70
2023-01-05T19:10:10.751Z,6.63
2023-01-05T19:12:37.082Z,6.40
2023-01-05T19:15:03.687Z,6.43
2023-01-05T19:17:33.385Z,6.72
2023-01-05T19:19:59.737Z,5.65
2023-01-05T19:22:26.045Z,6.22
2023-01-05T19:24:52.418Z,6.32
2023-01-05T19:27:18.831Z,6.15
2023-01-05T19:29:45.252Z,7.30
2023-01-05T19:32:11.642Z,7.40
2023-01-05T19:34:38.303Z,7.70
2023-01-05T19:37:06.154Z,6.88
2023-01-05T19:39:32.534Z,7.28
2023-01-05T19:41:58.879Z,7.70
2023-01-05T19:44:25.304Z,7.57
2023-01-05T19:46:54.471Z,8.13
2023-01-05T19:49:23.461Z,7.88
2023-01-05T19:51:50.706Z,7.70
2023-01-05T19:54:17.474Z,7.10
2023-01-05T19:56:45.013Z,7.22
2023-01-05T19:59:16.716Z,7.53
2023-01-05T20:01:43.329Z,8.05
2023-01-05T20:04:09.886Z,8.73
2023-01-05T20:06:38.766Z,8.63
2023-01-05T20:09:09.262Z,7.78
2023-01-05T20:11:39.317Z,9.02
2023-01-05T20:14:30.811Z,8.07
2023-01-05T20:17:06.003Z,8.63
2023-01-05T20:19:34.378Z,8.93
2023-01-05T20:22:02.704Z,9.95
2023-01-05T20:24:31.699Z,9.32
2023-01-05T20:27:05.255Z,9.23
2023-01-05T20:29:32.179Z,8.90
2023-01-05T20:32:03.629Z,9.02
2023-01-05T20:34:32.298Z,9.57
2023-01-05T20:36:59.497Z,8.95
2023-01-05T20:39:25.844Z,9.23
2023-01-05T20:41:53.409Z,8.40
2023-01-05T20:44:22.874Z,8.18
2023-01-05T20:46:50.822Z,8.80
2023-01-05T20:49:17.959Z,6.90
2023-01-05T20:51:44.345Z,9.07
2023-01-05T20:54:11.633Z,9.52
2023-01-05T20:56:39.657Z,8.45
2023-01-05T20:59:11.146Z,9.13
2023-01-05T21:01:37.847Z,8.50
2023-01-05T21:04:06.037Z,9.18
2023-01-05T21:06:33.316Z,8.48
2023-01-05T21:09:00.214Z,7.20
2023-01-05T21:11:26.545Z,5.57
2023-01-05T21:13:54.842Z,6.13
2023-01-05T21:16:43.784Z,5.45
2023-01-05T21:19:12.228Z,4.60
2023-01-05T21:21:38.579Z,4.47
2023-01-05T21:24:07.650Z,4.97
2023-01-05T21:26:34.451Z,4.18
2023-01-05T21:29:00.780Z,4.35
2023-01-05T21:31:27.564Z,5.13
2023-01-05T21:33:54.507Z,3.67
2023-01-05T21:36:24.413Z,3.88
2023-01-05T21:39:01.570Z,3.50
2023-01-05T21:41:49.841Z,3.28
2023-01-05T21:44:17.227Z,2.70
2023-01-05T21:46:43.717Z,3.67
2023-01-05T21:49:11.195Z,2.80
2023-01-05T21:51:56.293Z,3.00
2023-01-05T21:54:42.069Z,2.95
2023-01-05T21:57:08.434Z,3.17
2023-01-05T21:59:34.948Z,2.90
2023-01-05T22:02:01.538Z,2.33
2023-01-05T22:04:27.898Z,2.65
2023-01-05T22:06:54.213Z,2.53
2023-01-05T22:09:20.575Z,2.90
2023-01-05T22:11:46.901Z,2.90
2023-01-05T22:14:13.423Z,4.45
2023-01-05T22:16:40.112Z,2.97
2023-01-05T22:19:06.479Z,2.40
2023-01-05T22:21:32.788Z,2.47
2023-01-05T22:23:59.186Z,2.42
2023-01-05T22:26:25.485Z,3.20
2023-01-05T22:28:52.565Z,2.58
2023-01-05T22:31:25.163Z,2.72
2023-01-05T22:33:54.166Z,2.65
2023-01-05T22:36:22.005Z,3.05
2023-01-05T22:38:49.810Z,3.10
2023-01-05T22:41:20.911Z,3.38
2023-01-05T22:46:16.871Z,2.33
2023-01-05T22:48:45.886Z,2.90
2023-01-05T22:51:18.071Z,2.88
2023-01-05T22:53:45.213Z,3.20
2023-01-05T22:56:13.696Z,2.78
2023-01-05T22:58:40.423Z,3.20
2023-01-05T23:01:12.123Z,2.00
2023-01-05T23:03:39.118Z,3.33
2023-01-05T23:06:06.034Z,2.28
2023-01-05T23:08:35.002Z,2.35
2023-01-05T23:11:04.760Z,2.53
2023-01-05T23:13:31.177Z,2.03
2023-01-05T23:15:58.020Z,2.50
2023-01-05T23:18:24.719Z,2.72
2023-01-05T23:20:55.698Z,1.50
2023-01-05T23:23:23.928Z,3.08
2023-01-05T23:25:51.699Z,2.50
2023-01-05T23:28:19.334Z,1.83
2023-01-05T23:30:47.425Z,2.33
2023-01-05T23:33:15.052Z,2.90
2023-01-05T23:35:42.999Z,2.75
2023-01-05T23:38:10.081Z,3.00
2023-01-05T23:40:44.325Z,2.63
2023-01-05T23:43:11.818Z,2.47
2023-01-05T23:45:38.650Z,2.70
2023-01-05T23:48:05.100Z,2.03
2023-01-05T23:50:32.025Z,2.55
2023-01-05T23:52:59.316Z,2.35
2023-01-05T23:55:25.901Z,2.53
2023-01-05T23:57:52.706Z,2.00
